sensor_id;sensor_type;location;lat;lon;timestamp;pressure;altitude;pressure_sealevel;temperature
7389;BMP180;3735;50.136;11.062;2022-12-18T00:01:31;99598.00;;;-11.10
7389;BMP180;3735;50.136;11.062;2022-12-18T00:04:01;99605.00;;;-11.10
7389;BMP180;3735;50.136;11.062;2022-12-18T00:06:29;99599.00;;;-11.20
7389;BMP180;3735;50.136;11.062;2022-12-18T00:08:57;99596.00;;;-11.30
7389;BMP180;3735;50.136;11.062;2022-12-18T00:11:27;99590.00;;;-11.30
7389;BMP180;3735;50.136;11.062;2022-12-18T00:13:56;99599.00;;;-11.30
7389;BMP180;3735;50.136;11.062;2022-12-18T00:16:24;99592.00;;;-11.20
7389;BMP180;3735;50.136;11.062;2022-12-18T00:18:56;99608.00;;;-11.20
7389;BMP180;3735;50.136;11.062;2022-12-18T00:21:23;99610.00;;;-11.20
7389;BMP180;3735;50.136;11.062;2022-12-18T00:23:50;99611.00;;;-11.10
7389;BMP180;3735;50.136;11.062;2022-12-18T00:26:29;99614.00;;;-11.10
7389;BMP180;3735;50.136;11.062;2022-12-18T00:28:58;99610.00;;;-11.20
7389;BMP180;3735;50.136;11.062;2022-12-18T00:31:26;99612.00;;;-11.20
7389;BMP180;3735;50.136;11.062;2022-12-18T00:33:54;99605.00;;;-11.20
7389;BMP180;3735;50.136;11.062;2022-12-18T00:36:27;99598.00;;;-11.10
7389;BMP180;3735;50.136;11.062;2022-12-18T00:38:55;99595.00;;;-11.10
7389;BMP180;3735;50.136;11.062;2022-12-18T00:41:21;99602.00;;;-11.10
7389;BMP180;3735;50.136;11.062;2022-12-18T00:44:09;99611.00;;;-11.20
7389;BMP180;3735;50.136;11.062;2022-12-18T00:46:35;99603.00;;;-11.20
7389;BMP180;3735;50.136;11.062;2022-12-18T00:49:02;99603.00;;;-11.30
7389;BMP180;3735;50.136;11.062;2022-12-18T00:51:28;99565.00;;;-11.40
7389;BMP180;3735;50.136;11.062;2022-12-18T00:53:54;99616.00;;;-11.50
7389;BMP180;3735;50.136;11.062;2022-12-18T00:56:20;99616.00;;;-11.60
7389;BMP180;3735;50.136;11.062;2022-12-18T00:58:46;99586.00;;;-11.50
7389;BMP180;3735;50.136;11.062;2022-12-18T01:01:13;99607.00;;;-11.50
7389;BMP180;3735;50.136;11.062;2022-12-18T01:03:39;99617.00;;;-11.40
7389;BMP180;3735;50.136;11.062;2022-12-18T01:06:10;99632.00;;;-11.30
7389;BMP180;3735;50.136;11.062;2022-12-18T01:08:38;99621.00;;;-11.30
7389;BMP180;3735;50.136;11.062;2022-12-18T01:11:10;99623.00;;;-11.30
7389;BMP180;3735;50.136;11.062;2022-12-18T01:13:37;99634.00;;;-11.30
7389;BMP180;3735;50.136;11.062;2022-12-18T01:16:03;99616.00;;;-11.30
7389;BMP180;3735;50.136;11.062;2022-12-18T01:18:29;99636.00;;;-11.30
7389;BMP180;3735;50.136;11.062;2022-12-18T01:20:55;99625.00;;;-11.40
7389;BMP180;3735;50.136;11.062;2022-12-18T01:23:20;99632.00;;;-11.30
7389;BMP180;3735;50.136;11.062;2022-12-18T01:25:46;99633.00;;;-11.40
7389;BMP180;3735;50.136;11.062;2022-12-18T01:28:12;99639.00;;;-11.40
7389;BMP180;3735;50.136;11.062;2022-12-18T01:30:38;99618.00;;;-11.40
7389;BMP180;3735;50.136;11.062;2022-12-18T01:33:06;99647.00;;;-11.50
7389;BMP180;3735;50.136;11.062;2022-12-18T01:35:32;99651.00;;;-11.50
7389;BMP180;3735;50.136;11.062;2022-12-18T01:37:58;99649.00;;;-11.40
7389;BMP180;3735;50.136;11.062;2022-12-18T01:40:24;99657.00;;;-11.50
7389;BMP180;3735;50.136;11.062;2022-12-18T01:42:53;99661.00;;;-11.50
7389;BMP180;3735;50.136;11.062;2022-12-18T01:45:23;99672.00;;;-11.50
7389;BMP180;3735;50.136;11.062;2022-12-18T01:48:01;99663.00;;;-11.50
7389;BMP180;3735;50.136;11.062;2022-12-18T01:50:32;99649.00;;;-11.50
7389;BMP180;3735;50.136;11.062;2022-12-18T01:53:17;99648.00;;;-11.60
7389;BMP180;3735;50.136;11.062;2022-12-18T01:55:53;99649.00;;;-11.70
7389;BMP180;3735;50.136;11.062;2022-12-18T01:58:23;99662.00;;;-11.70
7389;BMP180;3735;50.136;11.062;2022-12-18T02:00:51;99673.00;;;-11.60
7389;BMP180;3735;50.136;11.062;2022-12-18T02:03:17;99661.00;;;-11.60
7389;BMP180;3735;50.136;11.062;2022-12-18T02:08:34;99661.00;;;-11.60
7389;BMP180;3735;50.136;11.062;2022-12-18T02:14:38;99676.00;;;-11.60
7389;BMP180;3735;50.136;11.062;2022-12-18T02:17:13;99673.00;;;-11.60
7389;BMP180;3735;50.136;11.062;2022-12-18T02:20:24;99673.00;;;-11.70
7389;BMP180;3735;50.136;11.062;2022-12-18T02:28:22;99649.00;;;-11.70
7389;BMP180;3735;50.136;11.062;2022-12-18T02:30:54;99642.00;;;-11.70
7389;BMP180;3735;50.136;11.062;2022-12-18T02:33:23;99642.00;;;-11.80
7389;BMP180;3735;50.136;11.062;2022-12-18T02:35:53;99651.00;;;-11.90
7389;BMP180;3735;50.136;11.062;2022-12-18T02:38:20;99656.00;;;-12.00
7389;BMP180;3735;50.136;11.062;2022-12-18T02:40:48;99670.00;;;-12.00
7389;BMP180;3735;50.136;11.062;2022-12-18T02:43:15;99664.00;;;-12.00
7389;BMP180;3735;50.136;11.062;2022-12-18T02:46:00;99672.00;;;-12.00
7389;BMP180;3735;50.136;11.062;2022-12-18T02:48:46;99666.00;;;-12.00
7389;BMP180;3735;50.136;11.062;2022-12-18T02:51:29;99659.00;;;-12.10
7389;BMP180;3735;50.136;11.062;2022-12-18T02:54:17;99665.00;;;-12.10
7389;BMP180;3735;50.136;11.062;2022-12-18T02:56:52;99647.00;;;-12.00
7389;BMP180;3735;50.136;11.062;2022-12-18T02:59:36;99662.00;;;-11.90
7389;BMP180;3735;50.136;11.062;2022-12-18T03:02:20;99659.00;;;-11.90
7389;BMP180;3735;50.136;11.062;2022-12-18T03:07:52;99648.00;;;-12.00
7389;BMP180;3735;50.136;11.062;2022-12-18T03:10:26;99641.00;;;-12.10
7389;BMP180;3735;50.136;11.062;2022-12-18T03:13:05;99645.00;;;-12.00
7389;BMP180;3735;50.136;11.062;2022-12-18T03:15:38;99650.00;;;-12.00
7389;BMP180;3735;50.136;11.062;2022-12-18T03:18:17;99641.00;;;-12.00
7389;BMP180;3735;50.136;11.062;2022-12-18T03:20:47;99645.00;;;-12.00
7389;BMP180;3735;50.136;11.062;2022-12-18T03:23:21;99639.00;;;-12.00
7389;BMP180;3735;50.136;11.062;2022-12-18T03:25:51;99642.00;;;-11.90
7389;BMP180;3735;50.136;11.062;2022-12-18T03:28:22;99645.00;;;-11.80
7389;BMP180;3735;50.136;11.062;2022-12-18T03:30:56;99638.00;;;-11.80
7389;BMP180;3735;50.136;11.062;2022-12-18T03:33:59;99652.00;;;-11.90
7389;BMP180;3735;50.136;11.062;2022-12-18T03:36:26;99647.00;;;-11.90
7389;BMP180;3735;50.136;11.062;2022-12-18T03:38:53;99632.00;;;-11.80
7389;BMP180;3735;50.136;11.062;2022-12-18T03:42:15;99630.00;;;-11.80
7389;BMP180;3735;50.136;11.062;2022-12-18T03:45:26;99643.00;;;-11.80
7389;BMP180;3735;50.136;11.062;2022-12-18T03:51:00;99645.00;;;-11.80
7389;BMP180;3735;50.136;11.062;2022-12-18T03:53:58;99631.00;;;-11.70
7389;BMP180;3735;50.136;11.062;2022-12-18T03:56:31;99624.00;;;-11.80
7389;BMP180;3735;50.136;11.062;2022-12-18T03:59:00;99631.00;;;-11.80
7389;BMP180;3735;50.136;11.062;2022-12-18T04:01:37;99630.00;;;-11.80
7389;BMP180;3735;50.136;11.062;2022-12-18T04:04:06;99642.00;;;-12.00
7389;BMP180;3735;50.136;11.062;2022-12-18T04:06:33;99660.00;;;-12.10
7389;BMP180;3735;50.136;11.062;2022-12-18T04:08:59;99667.00;;;-12.10
7389;BMP180;3735;50.136;11.062;2022-12-18T04:11:25;99662.00;;;-12.10
7389;BMP180;3735;50.136;11.062;2022-12-18T04:13:56;99661.00;;;-12.00
7389;BMP180;3735;50.136;11.062;2022-12-18T04:16:26;99668.00;;;-12.00
7389;BMP180;3735;50.136;11.062;2022-12-18T04:18:52;99641.00;;;-12.00
7389;BMP180;3735;50.136;11.062;2022-12-18T04:21:19;99670.00;;;-12.00
7389;BMP180;3735;50.136;11.062;2022-12-18T04:23:45;99663.00;;;-12.00
7389;BMP180;3735;50.136;11.062;2022-12-18T04:26:11;99640.00;;;-12.00
7389;BMP180;3735;50.136;11.062;2022-12-18T04:28:36;99655.00;;;-12.00
7389;BMP180;3735;50.136;11.062;2022-12-18T04:31:04;99654.00;;;-12.10
7389;BMP180;3735;50.136;11.062;2022-12-18T04:33:30;99650.00;;;-12.10
7389;BMP180;3735;50.136;11.062;2022-12-18T04:35:56;99670.00;;;-12.20
7389;BMP180;3735;50.136;11.062;2022-12-18T04:38:22;99683.00;;;-12.20
7389;BMP180;3735;50.136;11.062;2022-12-18T04:40:47;99692.00;;;-12.30
7389;BMP180;3735;50.136;11.062;2022-12-18T04:43:13;99688.00;;;-12.40
7389;BMP180;3735;50.136;11.062;2022-12-18T04:45:39;99690.00;;;-12.40
7389;BMP180;3735;50.136;11.062;2022-12-18T04:48:05;99698.00;;;-12.40
7389;BMP180;3735;50.136;11.062;2022-12-18T04:50:31;99704.00;;;-12.50
7389;BMP180;3735;50.136;11.062;2022-12-18T04:52:57;99699.00;;;-12.40
7389;BMP180;3735;50.136;11.062;2022-12-18T04:55:23;99702.00;;;-12.60
7389;BMP180;3735;50.136;11.062;2022-12-18T04:57:49;99705.00;;;-12.70
7389;BMP180;3735;50.136;11.062;2022-12-18T05:00:15;99708.00;;;-12.80
7389;BMP180;3735;50.136;11.062;2022-12-18T05:02:41;99716.00;;;-13.00
7389;BMP180;3735;50.136;11.062;2022-12-18T05:05:07;99716.00;;;-13.10
7389;BMP180;3735;50.136;11.062;2022-12-18T05:07:33;99718.00;;;-13.10
7389;BMP180;3735;50.136;11.062;2022-12-18T05:09:59;99721.00;;;-13.20
7389;BMP180;3735;50.136;11.062;2022-12-18T05:12:25;99727.00;;;-13.20
7389;BMP180;3735;50.136;11.062;2022-12-18T05:14:51;99731.00;;;-13.30
7389;BMP180;3735;50.136;11.062;2022-12-18T05:17:17;99735.00;;;-13.20
7389;BMP180;3735;50.136;11.062;2022-12-18T05:19:43;99719.00;;;-13.20
7389;BMP180;3735;50.136;11.062;2022-12-18T05:22:09;99741.00;;;-13.30
7389;BMP180;3735;50.136;11.062;2022-12-18T05:24:35;99732.00;;;-13.40
7389;BMP180;3735;50.136;11.062;2022-12-18T05:27:01;99744.00;;;-13.60
7389;BMP180;3735;50.136;11.062;2022-12-18T05:29:27;99738.00;;;-13.30
7389;BMP180;3735;50.136;11.062;2022-12-18T05:31:53;99747.00;;;-13.40
7389;BMP180;3735;50.136;11.062;2022-12-18T05:34:18;99741.00;;;-13.50
7389;BMP180;3735;50.136;11.062;2022-12-18T05:36:44;99749.00;;;-13.40
7389;BMP180;3735;50.136;11.062;2022-12-18T05:39:10;99737.00;;;-13.30
7389;BMP180;3735;50.136;11.062;2022-12-18T05:41:36;99742.00;;;-13.30
7389;BMP180;3735;50.136;11.062;2022-12-18T05:44:01;99736.00;;;-13.20
7389;BMP180;3735;50.136;11.062;2022-12-18T05:46:27;99730.00;;;-13.30
7389;BMP180;3735;50.136;11.062;2022-12-18T05:48:53;99751.00;;;-13.40
7389;BMP180;3735;50.136;11.062;2022-12-18T05:51:21;99769.00;;;-13.50
7389;BMP180;3735;50.136;11.062;2022-12-18T05:53:48;99759.00;;;-13.50
7389;BMP180;3735;50.136;11.062;2022-12-18T05:56:18;99736.00;;;-13.50
7389;BMP180;3735;50.136;11.062;2022-12-18T05:58:45;99783.00;;;-13.60
7389;BMP180;3735;50.136;11.062;2022-12-18T06:01:23;99779.00;;;-13.60
7389;BMP180;3735;50.136;11.062;2022-12-18T06:03:49;99776.00;;;-13.50
7389;BMP180;3735;50.136;11.062;2022-12-18T06:06:27;99782.00;;;-13.60
7389;BMP180;3735;50.136;11.062;2022-12-18T06:08:54;99781.00;;;-13.60
7389;BMP180;3735;50.136;11.062;2022-12-18T06:11:24;99787.00;;;-13.60
7389;BMP180;3735;50.136;11.062;2022-12-18T06:13:53;99786.00;;;-13.60
7389;BMP180;3735;50.136;11.062;2022-12-18T06:16:19;99786.00;;;-13.60
7389;BMP180;3735;50.136;11.062;2022-12-18T06:18:44;99785.00;;;-13.70
7389;BMP180;3735;50.136;11.062;2022-12-18T06:21:10;99788.00;;;-13.70
7389;BMP180;3735;50.136;11.062;2022-12-18T06:23:36;99790.00;;;-13.70
7389;BMP180;3735;50.136;11.062;2022-12-18T06:26:08;99787.00;;;-13.70
7389;BMP180;3735;50.136;11.062;2022-12-18T06:28:34;99788.00;;;-13.70
7389;BMP180;3735;50.136;11.062;2022-12-18T06:30:59;99799.00;;;-13.70
7389;BMP180;3735;50.136;11.062;2022-12-18T06:33:28;99798.00;;;-13.70
7389;BMP180;3735;50.136;11.062;2022-12-18T06:35:59;99802.00;;;-13.70
7389;BMP180;3735;50.136;11.062;2022-12-18T06:38:26;99791.00;;;-13.70
7389;BMP180;3735;50.136;11.062;2022-12-18T06:40:51;99801.00;;;-13.70
7389;BMP180;3735;50.136;11.062;2022-12-18T06:43:17;99798.00;;;-13.70
7389;BMP180;3735;50.136;11.062;2022-12-18T06:45:43;99794.00;;;-13.60
7389;BMP180;3735;50.136;11.062;2022-12-18T06:48:08;99796.00;;;-13.60
7389;BMP180;3735;50.136;11.062;2022-12-18T06:50:34;99794.00;;;-13.50
7389;BMP180;3735;50.136;11.062;2022-12-18T06:53:00;99787.00;;;-13.50
7389;BMP180;3735;50.136;11.062;2022-12-18T06:55:26;99787.00;;;-13.50
7389;BMP180;3735;50.136;11.062;2022-12-18T06:57:52;99780.00;;;-13.60
7389;BMP180;3735;50.136;11.062;2022-12-18T07:00:18;99776.00;;;-13.50
7389;BMP180;3735;50.136;11.062;2022-12-18T07:02:43;99727.00;;;-13.30
7389;BMP180;3735;50.136;11.062;2022-12-18T07:05:09;99770.00;;;-13.20
7389;BMP180;3735;50.136;11.062;2022-12-18T07:07:35;99774.00;;;-13.10
7389;BMP180;3735;50.136;11.062;2022-12-18T07:10:01;99756.00;;;-13.10
7389;BMP180;3735;50.136;11.062;2022-12-18T07:12:27;99760.00;;;-13.10
7389;BMP180;3735;50.136;11.062;2022-12-18T07:14:53;99759.00;;;-13.00
7389;BMP180;3735;50.136;11.062;2022-12-18T07:17:18;99762.00;;;-13.10
7389;BMP180;3735;50.136;11.062;2022-12-18T07:19:44;99762.00;;;-13.00
7389;BMP180;3735;50.136;11.062;2022-12-18T07:22:10;99778.00;;;-13.00
7389;BMP180;3735;50.136;11.062;2022-12-18T07:24:36;99771.00;;;-13.10
7389;BMP180;3735;50.136;11.062;2022-12-18T07:27:01;99793.00;;;-13.30
7389;BMP180;3735;50.136;11.062;2022-12-18T07:29:27;99799.00;;;-13.20
7389;BMP180;3735;50.136;11.062;2022-12-18T07:31:54;99792.00;;;-13.10
7389;BMP180;3735;50.136;11.062;2022-12-18T07:34:19;99799.00;;;-13.20
7389;BMP180;3735;50.136;11.062;2022-12-18T07:36:45;99808.00;;;-13.20
7389;BMP180;3735;50.136;11.062;2022-12-18T07:39:11;99810.00;;;-13.10
7389;BMP180;3735;50.136;11.062;2022-12-18T07:41:37;99795.00;;;-13.10
7389;BMP180;3735;50.136;11.062;2022-12-18T07:44:04;99809.00;;;-13.10
7389;BMP180;3735;50.136;11.062;2022-12-18T07:46:29;99817.00;;;-13.00
7389;BMP180;3735;50.136;11.062;2022-12-18T07:48:55;99821.00;;;-13.00
7389;BMP180;3735;50.136;11.062;2022-12-18T07:51:21;99830.00;;;-13.00
7389;BMP180;3735;50.136;11.062;2022-12-18T07:53:47;99827.00;;;-13.00
7389;BMP180;3735;50.136;11.062;2022-12-18T07:56:13;99821.00;;;-13.00
7389;BMP180;3735;50.136;11.062;2022-12-18T07:58:39;99824.00;;;-12.90
7389;BMP180;3735;50.136;11.062;2022-12-18T08:01:11;99831.00;;;-12.90
7389;BMP180;3735;50.136;11.062;2022-12-18T08:03:39;99838.00;;;-12.80
7389;BMP180;3735;50.136;11.062;2022-12-18T08:06:08;99847.00;;;-12.80
7389;BMP180;3735;50.136;11.062;2022-12-18T08:08:35;99839.00;;;-12.70
7389;BMP180;3735;50.136;11.062;2022-12-18T08:11:01;99842.00;;;-12.70
7389;BMP180;3735;50.136;11.062;2022-12-18T08:13:27;99739.00;;;-12.70
7389;BMP180;3735;50.136;11.062;2022-12-18T08:16:06;99851.00;;;-12.60
7389;BMP180;3735;50.136;11.062;2022-12-18T08:18:34;99851.00;;;-12.50
7389;BMP180;3735;50.136;11.062;2022-12-18T08:21:16;99858.00;;;-12.40
7389;BMP180;3735;50.136;11.062;2022-12-18T08:23:42;99840.00;;;-12.40
7389;BMP180;3735;50.136;11.062;2022-12-18T08:26:09;99842.00;;;-12.30
7389;BMP180;3735;50.136;11.062;2022-12-18T08:28:35;99849.00;;;-12.20
7389;BMP180;3735;50.136;11.062;2022-12-18T08:31:01;99845.00;;;-12.10
7389;BMP180;3735;50.136;11.062;2022-12-18T08:33:27;99845.00;;;-12.00
7389;BMP180;3735;50.136;11.062;2022-12-18T08:35:53;99850.00;;;-11.90
7389;BMP180;3735;50.136;11.062;2022-12-18T08:38:18;99821.00;;;-11.80
7389;BMP180;3735;50.136;11.062;2022-12-18T08:40:44;99839.00;;;-11.60
7389;BMP180;3735;50.136;11.062;2022-12-18T08:43:10;99821.00;;;-11.50
7389;BMP180;3735;50.136;11.062;2022-12-18T08:45:55;99811.00;;;-11.40
7389;BMP180;3735;50.136;11.062;2022-12-18T08:48:21;99801.00;;;-11.30
7389;BMP180;3735;50.136;11.062;2022-12-18T08:50:58;99805.00;;;-11.20
7389;BMP180;3735;50.136;11.062;2022-12-18T08:53:24;99793.00;;;-11.10
7389;BMP180;3735;50.136;11.062;2022-12-18T08:55:50;99774.00;;;-11.10
7389;BMP180;3735;50.136;11.062;2022-12-18T08:58:15;99787.00;;;-11.10
7389;BMP180;3735;50.136;11.062;2022-12-18T09:00:41;99781.00;;;-11.00
7389;BMP180;3735;50.136;11.062;2022-12-18T09:03:15;99798.00;;;-10.90
7389;BMP180;3735;50.136;11.062;2022-12-18T09:05:41;99790.00;;;-10.90
7389;BMP180;3735;50.136;11.062;2022-12-18T09:08:07;99792.00;;;-10.70
7389;BMP180;3735;50.136;11.062;2022-12-18T09:10:33;99790.00;;;-10.60
7389;BMP180;3735;50.136;11.062;2022-12-18T09:12:59;99783.00;;;-10.50
7389;BMP180;3735;50.136;11.062;2022-12-18T09:15:25;99788.00;;;-10.30
7389;BMP180;3735;50.136;11.062;2022-12-18T09:17:51;99791.00;;;-10.10
7389;BMP180;3735;50.136;11.062;2022-12-18T09:20:18;99786.00;;;-10.00
7389;BMP180;3735;50.136;11.062;2022-12-18T09:22:44;99779.00;;;-9.80
7389;BMP180;3735;50.136;11.062;2022-12-18T09:25:10;99767.00;;;-9.70
7389;BMP180;3735;50.136;11.062;2022-12-18T09:27:35;99772.00;;;-9.50
7389;BMP180;3735;50.136;11.062;2022-12-18T09:30:02;99742.00;;;-9.40
7389;BMP180;3735;50.136;11.062;2022-12-18T09:32:28;99753.00;;;-9.20
7389;BMP180;3735;50.136;11.062;2022-12-18T09:34:54;99755.00;;;-8.90
7389;BMP180;3735;50.136;11.062;2022-12-18T09:37:19;99742.00;;;-8.70
7389;BMP180;3735;50.136;11.062;2022-12-18T09:39:45;99704.00;;;-8.50
7389;BMP180;3735;50.136;11.062;2022-12-18T09:42:21;99738.00;;;-8.30
7389;BMP180;3735;50.136;11.062;2022-12-18T09:44:53;99729.00;;;-7.90
7389;BMP180;3735;50.136;11.062;2022-12-18T09:47:34;99718.00;;;-6.80
7389;BMP180;3735;50.136;11.062;2022-12-18T09:50:15;99689.00;;;-5.60
7389;BMP180;3735;50.136;11.062;2022-12-18T09:52:48;99680.00;;;-4.50
7389;BMP180;3735;50.136;11.062;2022-12-18T09:55:45;99679.00;;;-3.80
7389;BMP180;3735;50.136;11.062;2022-12-18T09:58:36;99661.00;;;-3.10
7389;BMP180;3735;50.136;11.062;2022-12-18T10:01:14;99649.00;;;-2.70
7389;BMP180;3735;50.136;11.062;2022-12-18T10:03:41;99644.00;;;-2.20
7389;BMP180;3735;50.136;11.062;2022-12-18T10:12:09;99662.00;;;-1.10
7389;BMP180;3735;50.136;11.062;2022-12-18T10:19:59;99618.00;;;0.50
7389;BMP180;3735;50.136;11.062;2022-12-18T10:22:57;99590.00;;;0.60
7389;BMP180;3735;50.136;11.062;2022-12-18T10:28:12;99609.00;;;1.00
7389;BMP180;3735;50.136;11.062;2022-12-18T10:30:41;99601.00;;;1.20
7389;BMP180;3735;50.136;11.062;2022-12-18T10:33:18;99601.00;;;1.80
7389;BMP180;3735;50.136;11.062;2022-12-18T10:35:45;99601.00;;;2.00
7389;BMP180;3735;50.136;11.062;2022-12-18T10:43:35;99605.00;;;1.70
7389;BMP180;3735;50.136;11.062;2022-12-18T10:48:48;99610.00;;;2.50
7389;BMP180;3735;50.136;11.062;2022-12-18T10:51:43;99615.00;;;2.80
7389;BMP180;3735;50.136;11.062;2022-12-18T10:54:22;99597.00;;;2.80
7389;BMP180;3735;50.136;11.062;2022-12-18T10:56:49;99605.00;;;3.20
7389;BMP180;3735;50.136;11.062;2022-12-18T10:59:17;99598.00;;;3.00
7389;BMP180;3735;50.136;11.062;2022-12-18T11:01:57;99606.00;;;2.80
7389;BMP180;3735;50.136;11.062;2022-12-18T11:04:32;99602.00;;;3.20
7389;BMP180;3735;50.136;11.062;2022-12-18T11:07:04;99604.00;;;3.60
7389;BMP180;3735;50.136;11.062;2022-12-18T11:09:40;99535.00;;;3.50
7389;BMP180;3735;50.136;11.062;2022-12-18T11:12:17;99593.00;;;2.90
7389;BMP180;3735;50.136;11.062;2022-12-18T11:14:53;99582.00;;;2.40
7389;BMP180;3735;50.136;11.062;2022-12-18T11:17:34;99592.00;;;1.00
7389;BMP180;3735;50.136;11.062;2022-12-18T11:20:07;99596.00;;;0.50
7389;BMP180;3735;50.136;11.062;2022-12-18T11:23:02;99616.00;;;0.20
7389;BMP180;3735;50.136;11.062;2022-12-18T11:25:30;99618.00;;;0.10
7389;BMP180;3735;50.136;11.062;2022-12-18T11:28:39;99634.00;;;-0.40
7389;BMP180;3735;50.136;11.062;2022-12-18T11:31:22;99629.00;;;-0.80
7389;BMP180;3735;50.136;11.062;2022-12-18T11:36:33;99616.00;;;-0.70
7389;BMP180;3735;50.136;11.062;2022-12-18T11:42:09;99598.00;;;-0.60
7389;BMP180;3735;50.136;11.062;2022-12-18T11:45:03;99578.00;;;0.40
7389;BMP180;3735;50.136;11.062;2022-12-18T11:48:01;99583.00;;;1.90
7389;BMP180;3735;50.136;11.062;2022-12-18T11:53:02;99572.00;;;3.60
7389;BMP180;3735;50.136;11.062;2022-12-18T11:55:39;99566.00;;;3.40
7389;BMP180;3735;50.136;11.062;2022-12-18T12:16:11;99512.00;;;3.40
7389;BMP180;3735;50.136;11.062;2022-12-18T12:31:15;99521.00;;;2.20
7389;BMP180;3735;50.136;11.062;2022-12-18T12:34:26;99532.00;;;1.70
7389;BMP180;3735;50.136;11.062;2022-12-18T12:40:02;99530.00;;;1.30
7389;BMP180;3735;50.136;11.062;2022-12-18T12:42:40;99534.00;;;1.60
7389;BMP180;3735;50.136;11.062;2022-12-18T12:48:37;99527.00;;;1.70
7389;BMP180;3735;50.136;11.062;2022-12-18T12:51:20;99535.00;;;1.90
7389;BMP180;3735;50.136;11.062;2022-12-18T12:53:48;99551.00;;;1.40
7389;BMP180;3735;50.136;11.062;2022-12-18T12:56:18;99551.00;;;1.90
7389;BMP180;3735;50.136;11.062;2022-12-18T13:01:54;99543.00;;;1.80
7389;BMP180;3735;50.136;11.062;2022-12-18T13:05:07;99551.00;;;0.50
7389;BMP180;3735;50.136;11.062;2022-12-18T13:08:08;99530.00;;;0.70
7389;BMP180;3735;50.136;11.062;2022-12-18T13:10:39;99519.00;;;0.30
7389;BMP180;3735;50.136;11.062;2022-12-18T13:13:16;99523.00;;;0.10
7389;BMP180;3735;50.136;11.062;2022-12-18T13:15:48;99499.00;;;-0.20
7389;BMP180;3735;50.136;11.062;2022-12-18T13:18:25;99507.00;;;-0.60
7389;BMP180;3735;50.136;11.062;2022-12-18T13:21:08;99513.00;;;-0.80
7389;BMP180;3735;50.136;11.062;2022-12-18T13:23:37;99515.00;;;-0.90
7389;BMP180;3735;50.136;11.062;2022-12-18T13:34:29;99539.00;;;-1.70
7389;BMP180;3735;50.136;11.062;2022-12-18T13:37:41;99535.00;;;-1.80
7389;BMP180;3735;50.136;11.062;2022-12-18T13:46:20;99537.00;;;-1.70
7389;BMP180;3735;50.136;11.062;2022-12-18T13:48:38;99540.00;;;-1.90
7389;BMP180;3735;50.136;11.062;2022-12-18T13:51:10;99543.00;;;-1.90
7389;BMP180;3735;50.136;11.062;2022-12-18T13:53:55;99534.00;;;-2.10
7389;BMP180;3735;50.136;11.062;2022-12-18T13:56:27;99503.00;;;-2.20
7389;BMP180;3735;50.136;11.062;2022-12-18T13:59:20;99527.00;;;-2.30
7389;BMP180;3735;50.136;11.062;2022-12-18T14:01:57;99523.00;;;-2.30
7389;BMP180;3735;50.136;11.062;2022-12-18T14:04:34;99504.00;;;-2.50
7389;BMP180;3735;50.136;11.062;2022-12-18T14:07:26;99521.00;;;-2.60
7389;BMP180;3735;50.136;11.062;2022-12-18T14:09:59;99523.00;;;-2.70
7389;BMP180;3735;50.136;11.062;2022-12-18T14:12:33;99517.00;;;-2.80
7389;BMP180;3735;50.136;11.062;2022-12-18T14:15:39;99534.00;;;-3.00
7389;BMP180;3735;50.136;11.062;2022-12-18T14:21:24;99549.00;;;-3.40
7389;BMP180;3735;50.136;11.062;2022-12-18T14:24:16;99556.00;;;-3.40
7389;BMP180;3735;50.136;11.062;2022-12-18T14:26:43;99553.00;;;-3.50
7389;BMP180;3735;50.136;11.062;2022-12-18T14:29:35;99550.00;;;-3.50
7389;BMP180;3735;50.136;11.062;2022-12-18T14:32:18;99538.00;;;-3.60
7389;BMP180;3735;50.136;11.062;2022-12-18T14:34:51;99542.00;;;-3.70
7389;BMP180;3735;50.136;11.062;2022-12-18T14:37:24;99549.00;;;-3.80
7389;BMP180;3735;50.136;11.062;2022-12-18T14:40:02;99560.00;;;-4.00
7389;BMP180;3735;50.136;11.062;2022-12-18T14:42:28;99555.00;;;-4.10
7389;BMP180;3735;50.136;11.062;2022-12-18T14:45:39;99578.00;;;-4.30
7389;BMP180;3735;50.136;11.062;2022-12-18T14:48:21;99581.00;;;-4.40
7389;BMP180;3735;50.136;11.062;2022-12-18T14:53:42;99577.00;;;-4.70
7389;BMP180;3735;50.136;11.062;2022-12-18T15:01:38;99593.00;;;-5.10
7389;BMP180;3735;50.136;11.062;2022-12-18T15:04:24;99586.00;;;-5.10
7389;BMP180;3735;50.136;11.062;2022-12-18T15:07:23;99590.00;;;-5.30
7389;BMP180;3735;50.136;11.062;2022-12-18T15:10:45;99596.00;;;-5.40
7389;BMP180;3735;50.136;11.062;2022-12-18T15:20:44;99576.00;;;-5.70
7389;BMP180;3735;50.136;11.062;2022-12-18T15:23:25;99595.00;;;-5.80
7389;BMP180;3735;50.136;11.062;2022-12-18T15:26:08;99583.00;;;-5.80
7389;BMP180;3735;50.136;11.062;2022-12-18T15:28:56;99599.00;;;-5.90
7389;BMP180;3735;50.136;11.062;2022-12-18T15:31:34;99595.00;;;-5.90
7389;BMP180;3735;50.136;11.062;2022-12-18T15:34:14;99599.00;;;-6.00
7389;BMP180;3735;50.136;11.062;2022-12-18T15:36:43;99593.00;;;-6.00
7389;BMP180;3735;50.136;11.062;2022-12-18T15:39:12;99600.00;;;-6.00
7389;BMP180;3735;50.136;11.062;2022-12-18T15:41:39;99600.00;;;-6.00
7389;BMP180;3735;50.136;11.062;2022-12-18T15:44:24;99563.00;;;-6.00
7389;BMP180;3735;50.136;11.062;2022-12-18T15:46:51;99592.00;;;-6.10
7389;BMP180;3735;50.136;11.062;2022-12-18T15:49:16;99591.00;;;-6.10
7389;BMP180;3735;50.136;11.062;2022-12-18T15:51:42;99593.00;;;-6.10
7389;BMP180;3735;50.136;11.062;2022-12-18T15:54:13;99587.00;;;-6.20
7389;BMP180;3735;50.136;11.062;2022-12-18T15:56:41;99597.00;;;-6.30
7389;BMP180;3735;50.136;11.062;2022-12-18T15:59:25;99593.00;;;-6.40
7389;BMP180;3735;50.136;11.062;2022-12-18T16:01:52;99542.00;;;-6.40
7389;BMP180;3735;50.136;11.062;2022-12-18T16:04:21;99596.00;;;-6.40
7389;BMP180;3735;50.136;11.062;2022-12-18T16:06:48;99574.00;;;-6.50
7389;BMP180;3735;50.136;11.062;2022-12-18T16:09:13;99586.00;;;-6.50
7389;BMP180;3735;50.136;11.062;2022-12-18T16:11:43;99575.00;;;-6.50
7389;BMP180;3735;50.136;11.062;2022-12-18T16:14:26;99582.00;;;-6.50
7389;BMP180;3735;50.136;11.062;2022-12-18T16:17:05;99583.00;;;-6.50
7389;BMP180;3735;50.136;11.062;2022-12-18T16:19:31;99577.00;;;-6.60
7389;BMP180;3735;50.136;11.062;2022-12-18T16:21:58;99572.00;;;-6.50
7389;BMP180;3735;50.136;11.062;2022-12-18T16:24:27;99567.00;;;-6.50
7389;BMP180;3735;50.136;11.062;2022-12-18T16:26:56;99561.00;;;-6.50
7389;BMP180;3735;50.136;11.062;2022-12-18T16:29:23;99557.00;;;-6.50
7389;BMP180;3735;50.136;11.062;2022-12-18T16:31:57;99562.00;;;-6.60
7389;BMP180;3735;50.136;11.062;2022-12-18T16:34:29;99567.00;;;-6.60
7389;BMP180;3735;50.136;11.062;2022-12-18T16:37:07;99570.00;;;-6.60
7389;BMP180;3735;50.136;11.062;2022-12-18T16:39:34;99566.00;;;-6.60
7389;BMP180;3735;50.136;11.062;2022-12-18T16:42:16;99555.00;;;-6.60
7389;BMP180;3735;50.136;11.062;2022-12-18T16:44:46;99556.00;;;-6.60